West Ossipee, New Hampshire
Current Conditions -  °F | °C
As of 6:54 PM on Sunday 21 Dec 2014 (Local Time) from KIZG Reporting Station
Overcast Overcast  
Wind Chill: 27°   Ceiling: 3900
Heat Index: 27°   Visibility: 10mi
Dew Point: 21°   Wind: 0mph
Humidity: 78%   Direction: NA
Pressure: 30.35"   Gusts: NA
Location:  43.82°N, 71.21°W
Report Text: KIZG 212354Z AUTO 00000KT 10SM BKN039 OVC049 M03/M06 A3035 RMK AO2 SLP284 T10281061 11017 21028 51009
Loading
Personal Weather Stations






























Interactive Weather Map New forecast layout! Learn more

10-Day Weather Forecast

Advertisements
Track Severe Weather on mobile